Time;durP1;ratioP1;P1;durP2;ratioP2;P2;SDS_P1;SDS_P2;PMS_P1;PMS_P2;Temp;Humidity;BMP_temperature;BMP_pressure;BME280_temperature;BME280_humidity;BME280_pressure;Samples;Min_cycle;Max_cycle;Signal;HPM_P1;HPM_P2
2022/10/06 00:00:48;;;;;;;9.43;3.47;;;;;;;;;;5033056;28;20025;-66
2022/10/06 00:03:13;;;;;;;11.63;3.40;;;;;;;;;;5015414;28;20041;-66
2022/10/06 00:05:38;;;;;;;11.52;3.55;;;;;;;;;;5014044;28;20033;-66
2022/10/06 00:08:04;;;;;;;6.22;3.05;;;;;;;;;;5032619;28;20471;-66
2022/10/06 00:10:29;;;;;;;6.47;3.13;;;;;;;;;;5032333;28;20036;-66
2022/10/06 00:12:55;;;;;;;8.13;3.25;;;;;;;;;;5031755;28;20032;-65
2022/10/06 00:15:22;;;;;;;9.45;3.42;;;;;;;;;;5032387;28;20471;-65
2022/10/06 00:17:47;;;;;;;6.97;3.20;;;;;;;;;;5032502;28;20487;-66
2022/10/06 00:20:13;;;;;;;10.18;3.28;;;;;;;;;;5032614;28;20051;-66
2022/10/06 00:22:40;;;;;;;10.15;2.75;;;;;;;;;;5031566;28;20479;-65
2022/10/06 00:25:06;;;;;;;6.88;2.92;;;;;;;;;;5018825;28;20084;-67
2022/10/06 00:27:32;;;;;;;9.27;2.92;;;;;;;;;;5031762;28;20013;-66
2022/10/06 00:29:57;;;;;;;8.07;2.83;;;;;;;;;;5031083;28;20021;-64
2022/10/06 00:32:22;;;;;;;6.30;2.85;;;;;;;;;;5031684;28;20109;-67
2022/10/06 00:34:47;;;;;;;7.20;2.87;;;;;;;;;;5031883;28;20014;-67
2022/10/06 00:37:13;;;;;;;6.93;2.92;;;;;;;;;;5031158;28;20686;-65
2022/10/06 00:39:38;;;;;;;5.67;2.30;;;;;;;;;;5031511;28;20037;-65
2022/10/06 00:42:03;;;;;;;4.78;2.30;;;;;;;;;;5032098;28;20254;-68
2022/10/06 00:44:29;;;;;;;8.88;2.95;;;;;;;;;;5030054;28;20057;-64
2022/10/06 00:46:55;;;;;;;6.80;2.57;;;;;;;;;;5030093;28;20073;-65
2022/10/06 00:49:33;;;;;;;5.22;2.22;;;;;;;;;;5029812;28;20258;-64
2022/10/06 00:52:01;;;;;;;9.10;2.50;;;;;;;;;;5032134;28;20017;-64
2022/10/06 00:54:27;;;;;;;8.27;2.85;;;;;;;;;;5031741;28;20049;-65
2022/10/06 00:56:52;;;;;;;5.93;2.40;;;;;;;;;;5031250;28;20774;-66
2022/10/06 00:59:18;;;;;;;4.93;2.77;;;;;;;;;;5032341;28;20164;-66
2022/10/06 01:01:48;;;;;;;6.28;2.85;;;;;;;;;;5031935;28;20263;-66
2022/10/06 01:04:14;;;;;;;5.88;2.53;;;;;;;;;;5032370;28;20025;-65
2022/10/06 01:06:44;;;;;;;4.65;2.55;;;;;;;;;;5031535;28;20386;-65
2022/10/06 01:09:11;;;;;;;6.75;2.65;;;;;;;;;;5031936;28;20676;-64
2022/10/06 01:11:37;;;;;;;5.80;2.67;;;;;;;;;;5013475;28;20420;-66
2022/10/06 01:14:03;;;;;;;6.70;2.70;;;;;;;;;;5031158;28;20045;-66
2022/10/06 01:16:30;;;;;;;7.93;3.17;;;;;;;;;;5031506;28;20036;-67
2022/10/06 01:18:57;;;;;;;9.73;3.30;;;;;;;;;;5032526;28;20143;-65
2022/10/06 01:21:37;;;;;;;7.13;2.80;;;;;;;;;;5032506;28;20045;-64
2022/10/06 01:24:03;;;;;;;6.63;2.90;;;;;;;;;;5030598;28;20117;-65
2022/10/06 01:26:29;;;;;;;6.85;2.55;;;;;;;;;;5030851;28;20052;-66
2022/10/06 01:28:55;;;;;;;9.10;3.15;;;;;;;;;;5015397;28;20025;-64
2022/10/06 01:31:20;;;;;;;7.53;3.22;;;;;;;;;;5033263;28;20416;-66
2022/10/06 01:33:49;;;;;;;6.05;3.00;;;;;;;;;;5015195;28;20017;-68
2022/10/06 01:36:14;;;;;;;;;;;;;;;;;;5033326;28;20022;-66
2022/10/06 01:38:39;;;;;;;9.20;3.17;;;;;;;;;;5031482;28;19959;-66
2022/10/06 01:41:05;;;;;;;6.43;3.10;;;;;;;;;;5031107;28;20120;-66
2022/10/06 01:43:30;;;;;;;4.85;2.65;;;;;;;;;;5031329;28;20269;-67
2022/10/06 01:45:55;;;;;;;12.77;3.47;;;;;;;;;;5011505;28;20026;-64
2022/10/06 01:48:21;;;;;;;7.82;2.90;;;;;;;;;;5028748;28;20021;-66
2022/10/06 01:50:46;;;;;;;20.55;3.92;;;;;;;;;;5023495;28;20041;-65
2022/10/06 01:53:11;;;;;;;10.50;3.10;;;;;;;;;;5029238;28;20033;-65
2022/10/06 01:55:37;;;;;;;7.78;3.45;;;;;;;;;;5032933;28;20258;-65
2022/10/06 01:58:02;;;;;;;11.60;3.17;;;;;;;;;;5034636;28;20018;-65
2022/10/06 02:00:27;;;;;;;8.18;3.03;;;;;;;;;;5017050;28;20033;-67
2022/10/06 02:02:52;;;;;;;6.68;3.10;;;;;;;;;;5034731;28;20490;-63
2022/10/06 02:05:18;;;;;;;12.88;3.30;;;;;;;;;;5035025;28;20388;-66
2022/10/06 02:07:43;;;;;;;7.82;3.25;;;;;;;;;;5034310;28;20017;-66
2022/10/06 02:10:08;;;;;;;11.30;3.08;;;;;;;;;;5035830;28;20713;-65
2022/10/06 02:12:34;;;;;;;6.80;3.13;;;;;;;;;;5035313;28;20026;-65
2022/10/06 02:14:59;;;;;;;8.15;3.53;;;;;;;;;;5035915;28;20025;-67
2022/10/06 02:17:24;;;;;;;13.07;3.78;;;;;;;;;;5032900;28;20091;-66
2022/10/06 02:19:49;;;;;;;13.32;3.22;;;;;;;;;;5032929;28;20029;-64
2022/10/06 02:22:15;;;;;;;6.38;3.15;;;;;;;;;;5032267;28;20033;-64
2022/10/06 02:24:40;;;;;;;7.43;3.45;;;;;;;;;;5023475;28;20057;-66
2022/10/06 02:27:06;;;;;;;5.10;2.72;;;;;;;;;;5030301;28;20447;-67
2022/10/06 02:29:32;;;;;;;11.27;3.28;;;;;;;;;;5029327;28;20498;-66
2022/10/06 02:31:57;;;;;;;8.00;3.00;;;;;;;;;;5034139;28;20026;-65
2022/10/06 02:34:22;;;;;;;10.75;3.28;;;;;;;;;;5033368;28;20306;-67
2022/10/06 02:36:47;;;;;;;15.63;3.25;;;;;;;;;;5033110;28;20026;-66
2022/10/06 02:39:13;;;;;;;32.97;3.88;;;;;;;;;;5033866;28;20033;-67
2022/10/06 02:41:39;;;;;;;5.17;2.80;;;;;;;;;;5033444;28;20033;-64
2022/10/06 02:44:04;;;;;;;6.80;2.92;;;;;;;;;;5032374;28;20332;-66
2022/10/06 02:46:30;;;;;;;9.77;2.97;;;;;;;;;;5015556;28;20013;-66
2022/10/06 02:48:55;;;;;;;6.13;2.85;;;;;;;;;;5033260;28;20017;-67
2022/10/06 02:51:20;;;;;;;7.85;2.65;;;;;;;;;;5033293;28;20097;-66
2022/10/06 02:53:47;;;;;;;7.30;2.90;;;;;;;;;;5033816;28;20049;-66
2022/10/06 02:56:22;;;;;;;9.20;2.80;;;;;;;;;;5035033;28;20025;-65
2022/10/06 02:58:48;;;;;;;8.88;2.80;;;;;;;;;;5034830;28;20100;-65
2022/10/06 03:01:15;;;;;;;8.40;2.75;;;;;;;;;;5031493;28;20475;-66
2022/10/06 03:03:40;;;;;;;10.07;2.92;;;;;;;;;;5025339;28;20108;-66
2022/10/06 03:06:20;;;;;;;6.45;3.00;;;;;;;;;;5033380;28;20518;-67
2022/10/06 03:08:49;;;;;;;4.72;2.33;;;;;;;;;;5036239;28;20056;-65
2022/10/06 03:11:15;;;;;;;5.38;2.40;;;;;;;;;;5035773;28;20053;-65
2022/10/06 03:13:40;;;;;;;10.73;2.63;;;;;;;;;;5034568;28;20112;-65
2022/10/06 03:16:15;;;;;;;8.75;2.58;;;;;;;;;;5034344;28;20490;-67
2022/10/06 03:18:44;;;;;;;5.40;2.67;;;;;;;;;;5034368;28;20029;-67
2022/10/06 03:21:10;;;;;;;9.00;2.53;;;;;;;;;;5034146;28;20096;-66
2022/10/06 03:23:36;;;;;;;7.38;2.90;;;;;;;;;;5034060;28;20051;-66
2022/10/06 03:26:01;;;;;;;9.98;3.28;;;;;;;;;;5035459;28;20067;-66
2022/10/06 03:28:26;;;;;;;15.65;2.60;;;;;;;;;;5034552;28;20102;-68
2022/10/06 03:30:53;;;;;;;6.72;2.65;;;;;;;;;;5034169;28;20104;-66
2022/10/06 03:33:18;;;;;;;10.80;2.95;;;;;;;;;;5033539;28;20025;-67
2022/10/06 03:35:44;;;;;;;9.57;2.72;;;;;;;;;;5034177;28;20095;-62
2022/10/06 03:38:09;;;;;;;10.20;2.53;;;;;;;;;;5032790;28;20598;-66
2022/10/06 03:40:37;;;;;;;7.33;2.57;;;;;;;;;;5014748;28;20037;-64
2022/10/06 03:43:03;;;;;;;11.73;2.83;;;;;;;;;;5013923;28;20247;-63
2022/10/06 03:45:28;;;;;;;10.27;2.30;;;;;;;;;;5032299;28;20036;-65
2022/10/06 03:47:54;;;;;;;6.97;2.75;;;;;;;;;;5013705;28;20032;-66
2022/10/06 03:50:19;;;;;;;9.05;2.90;;;;;;;;;;5031287;28;20067;-66
2022/10/06 03:52:50;;;;;;;7.50;2.53;;;;;;;;;;5031954;28;20041;-65
2022/10/06 03:55:15;;;;;;;6.80;2.60;;;;;;;;;;5032770;28;20521;-64
2022/10/06 03:57:40;;;;;;;6.43;2.50;;;;;;;;;;5013589;28;20499;-64
2022/10/06 04:00:06;;;;;;;7.85;2.75;;;;;;;;;;5031604;28;20446;-65
2022/10/06 04:02:31;;;;;;;6.65;2.75;;;;;;;;;;5031285;28;20033;-63
2022/10/06 04:04:56;;;;;;;9.63;2.83;;;;;;;;;;5032204;28;20021;-66
2022/10/06 04:07:21;;;;;;;7.13;2.70;;;;;;;;;;5032015;28;20018;-63
2022/10/06 04:09:46;;;;;;;8.48;3.13;;;;;;;;;;5032606;28;20045;-65
2022/10/06 04:12:11;;;;;;;6.47;2.70;;;;;;;;;;5033059;28;20259;-65
2022/10/06 04:14:37;;;;;;;8.33;2.43;;;;;;;;;;5032719;28;20270;-64
2022/10/06 04:17:02;;;;;;;6.93;2.70;;;;;;;;;;5031928;28;20251;-64
2022/10/06 04:19:27;;;;;;;5.97;2.72;;;;;;;;;;5031245;28;20862;-65
2022/10/06 04:21:52;;;;;;;6.40;2.50;;;;;;;;;;5031813;28;20033;-65
2022/10/06 04:24:17;;;;;;;11.75;2.70;;;;;;;;;;5010494;28;20022;-66
2022/10/06 04:26:44;;;;;;;5.73;2.73;;;;;;;;;;5024701;28;20040;-65
2022/10/06 04:29:09;;;;;;;6.95;2.60;;;;;;;;;;5011186;28;20346;-67
2022/10/06 04:31:36;;;;;;;6.10;2.75;;;;;;;;;;5033118;28;20064;-68
2022/10/06 04:34:01;;;;;;;11.13;3.25;;;;;;;;;;5029159;28;20047;-65
2022/10/06 04:36:28;;;;;;;7.65;2.85;;;;;;;;;;5031488;28;20543;-64
2022/10/06 04:38:57;;;;;;;9.15;3.67;;;;;;;;;;5032166;28;20105;-63
2022/10/06 04:41:22;;;;;;;;;;;;;;;;;;5032309;28;20463;-66
2022/10/06 04:43:47;;;;;;;7.40;2.53;;;;;;;;;;5033020;28;19905;-66
2022/10/06 04:46:14;;;;;;;9.15;2.65;;;;;;;;;;5031056;28;20436;-64
2022/10/06 04:48:39;;;;;;;11.32;2.38;;;;;;;;;;5032125;28;20021;-67
2022/10/06 04:51:05;;;;;;;8.32;2.42;;;;;;;;;;5034924;28;20607;-68
2022/10/06 04:53:31;;;;;;;4.43;2.30;;;;;;;;;;5034095;28;20112;-64
2022/10/06 04:56:00;;;;;;;8.48;2.00;;;;;;;;;;5031783;28;20029;-67
2022/10/06 04:58:28;;;;;;;1.85;0.82;;;;;;;;;;5018330;28;20053;-67
2022/10/06 05:00:54;;;;;;;10.52;1.73;;;;;;;;;;5030429;28;20069;-65
2022/10/06 05:03:19;;;;;;;1.67;0.85;;;;;;;;;;5041909;28;20025;-67
2022/10/06 05:05:44;;;;;;;3.77;1.23;;;;;;;;;;5029475;28;20156;-63
2022/10/06 05:08:09;;;;;;;1.88;1.00;;;;;;;;;;5013442;28;20716;-66
2022/10/06 05:10:34;;;;;;;4.50;1.10;;;;;;;;;;5031256;28;20024;-66
2022/10/06 05:13:02;;;;;;;1.23;0.75;;;;;;;;;;5032043;28;20021;-66
2022/10/06 05:15:28;;;;;;;2.30;0.90;;;;;;;;;;5030862;28;20125;-67
2022/10/06 05:17:53;;;;;;;2.95;1.08;;;;;;;;;;5032604;28;20057;-65
2022/10/06 05:20:21;;;;;;;3.67;0.93;;;;;;;;;;5013299;28;20676;-64
2022/10/06 05:22:46;;;;;;;2.92;1.10;;;;;;;;;;5032242;28;20074;-66
2022/10/06 05:25:12;;;;;;;2.10;0.90;;;;;;;;;;5022600;28;20132;-65
2022/10/06 05:27:37;;;;;;;7.72;1.30;;;;;;;;;;5006128;28;20085;-65
2022/10/06 05:30:02;;;;;;;5.78;1.00;;;;;;;;;;5023398;28;20510;-67
2022/10/06 05:32:27;;;;;;;3.92;1.20;;;;;;;;;;5013986;28;20105;-68
2022/10/06 05:34:53;;;;;;;3.67;1.00;;;;;;;;;;5022169;28;20052;-67
2022/10/06 05:37:18;;;;;;;2.70;0.88;;;;;;;;;;5023130;28;20301;-67
2022/10/06 05:39:43;;;;;;;1.75;0.73;;;;;;;;;;5021278;28;20044;-67
2022/10/06 05:42:18;;;;;;;4.05;0.85;;;;;;;;;;5022945;28;20136;-68
2022/10/06 05:44:43;;;;;;;2.40;0.90;;;;;;;;;;5021915;28;20028;-66
2022/10/06 05:47:08;;;;;;;2.13;0.90;;;;;;;;;;5021176;28;20025;-65
2022/10/06 05:49:33;;;;;;;4.53;1.13;;;;;;;;;;5020875;28;20264;-65
2022/10/06 05:51:58;;;;;;;1.90;0.77;;;;;;;;;;5021860;28;20037;-67
2022/10/06 05:54:24;;;;;;;1.75;0.75;;;;;;;;;;5021646;28;20617;-65
2022/10/06 05:56:49;;;;;;;3.55;0.80;;;;;;;;;;5020455;28;20025;-66
2022/10/06 05:59:14;;;;;;;3.70;1.05;;;;;;;;;;5021084;28;20036;-67
2022/10/06 06:01:40;;;;;;;4.88;0.77;;;;;;;;;;5021044;28;20456;-67
2022/10/06 06:04:07;;;;;;;5.70;1.20;;;;;;;;;;5021026;28;20062;-65
2022/10/06 06:06:33;;;;;;;1.92;1.15;;;;;;;;;;5020863;28;20051;-65
2022/10/06 06:09:01;;;;;;;1.50;0.88;;;;;;;;;;5022565;28;20242;-66
2022/10/06 06:11:30;;;;;;;4.47;1.10;;;;;;;;;;5019789;28;20432;-67
2022/10/06 06:13:56;;;;;;;3.03;0.75;;;;;;;;;;5022089;28;20049;-64
2022/10/06 06:16:22;;;;;;;5.45;1.08;;;;;;;;;;5020186;28;20045;-65
2022/10/06 06:18:47;;;;;;;2.72;0.80;;;;;;;;;;5021823;28;20376;-64
2022/10/06 06:21:12;;;;;;;3.58;0.63;;;;;;;;;;5020442;28;20030;-64
2022/10/06 06:23:39;;;;;;;3.50;0.90;;;;;;;;;;5019692;28;20067;-66
2022/10/06 06:26:08;;;;;;;2.47;0.80;;;;;;;;;;5021967;28;20076;-67
2022/10/06 06:28:35;;;;;;;1.33;0.63;;;;;;;;;;5019481;28;20108;-64
2022/10/06 06:31:02;;;;;;;7.18;1.02;;;;;;;;;;5019144;28;20049;-63
2022/10/06 06:33:28;;;;;;;4.32;0.80;;;;;;;;;;5001000;28;20159;-65
2022/10/06 06:35:53;;;;;;;7.15;1.10;;;;;;;;;;5021074;28;20049;-64
2022/10/06 06:38:18;;;;;;;6.60;0.73;;;;;;;;;;5020631;28;20066;-71
2022/10/06 06:40:43;;;;;;;3.33;0.90;;;;;;;;;;5005743;28;20113;-70
2022/10/06 06:43:11;;;;;;;7.35;1.27;;;;;;;;;;5022744;28;20250;-67
2022/10/06 06:45:36;;;;;;;3.60;1.23;;;;;;;;;;5006075;28;20059;-68
2022/10/06 06:48:02;;;;;;;8.05;1.70;;;;;;;;;;5022752;28;20052;-68
2022/10/06 06:50:27;;;;;;;6.18;1.92;;;;;;;;;;5022652;28;20398;-67
2022/10/06 06:52:52;;;;;;;3.10;1.15;;;;;;;;;;5024518;28;20030;-68
2022/10/06 06:55:18;;;;;;;5.43;1.10;;;;;;;;;;5023330;28;20344;-68
2022/10/06 06:57:45;;;;;;;3.13;1.33;;;;;;;;;;5023541;28;20367;-68
2022/10/06 07:00:11;;;;;;;7.13;1.52;;;;;;;;;;5022675;28;20281;-70
2022/10/06 07:02:36;;;;;;;8.82;1.33;;;;;;;;;;5023186;28;20021;-69
2022/10/06 07:05:01;;;;;;;6.20;1.55;;;;;;;;;;5024237;28;20103;-66
2022/10/06 07:07:27;;;;;;;6.20;1.48;;;;;;;;;;5005035;28;20017;-66
2022/10/06 07:09:52;;;;;;;5.47;1.00;;;;;;;;;;5023212;28;20475;-68
2022/10/06 07:12:17;;;;;;;4.47;1.20;;;;;;;;;;5023198;28;20024;-69
2022/10/06 07:25:05;;;;;;;5.45;1.30;;;;;;;;;;5024150;28;20114;-69
2022/10/06 07:25:40;;;;;;;10.63;1.73;;;;;;;;;;5024410;28;20087;-66
2022/10/06 07:28:06;;;;;;;10.50;1.60;;;;;;;;;;5023747;28;20125;-68
2022/10/06 07:30:31;;;;;;;13.43;1.52;;;;;;;;;;5021531;28;20470;-66
2022/10/06 07:32:57;;;;;;;8.60;1.63;;;;;;;;;;5021971;28;20491;-67
2022/10/06 07:35:23;;;;;;;14.85;2.67;;;;;;;;;;5022318;28;20845;-66
2022/10/06 07:37:49;;;;;;;5.43;1.25;;;;;;;;;;5022511;28;20033;-67
2022/10/06 07:40:14;;;;;;;6.03;1.35;;;;;;;;;;5022166;28;20116;-66
2022/10/06 07:42:58;;;;;;;10.40;1.33;;;;;;;;;;5005461;28;20097;-69
2022/10/06 07:45:40;;;;;;;5.00;1.52;;;;;;;;;;5023110;28;20026;-69
2022/10/06 07:48:06;;;;;;;8.50;1.20;;;;;;;;;;5023315;28;20029;-68
2022/10/06 07:50:32;;;;;;;9.93;1.20;;;;;;;;;;5021814;28;20029;-70
2022/10/06 07:53:03;;;;;;;10.75;1.77;;;;;;;;;;5022028;28;21163;-70
2022/10/06 07:55:29;;;;;;;11.27;1.80;;;;;;;;;;5013037;28;20038;-70
2022/10/06 07:57:54;;;;;;;10.55;1.70;;;;;;;;;;5023442;28;20203;-68
2022/10/06 08:00:21;;;;;;;7.10;1.52;;;;;;;;;;5022155;28;20495;-68
2022/10/06 08:02:46;;;;;;;6.93;1.23;;;;;;;;;;5004520;28;20021;-69
2022/10/06 08:05:11;;;;;;;9.75;1.48;;;;;;;;;;5022783;28;20368;-68
2022/10/06 08:07:36;;;;;;;4.53;1.17;;;;;;;;;;5023083;28;20017;-70
2022/10/06 08:10:02;;;;;;;14.80;1.83;;;;;;;;;;5004450;28;20539;-68
2022/10/06 08:12:36;;;;;;;7.60;1.20;;;;;;;;;;5022325;28;20024;-70
2022/10/06 08:15:02;;;;;;;11.07;2.10;;;;;;;;;;5021789;28;20034;-67
2022/10/06 08:17:27;;;;;;;5.05;1.00;;;;;;;;;;5021766;28;20133;-69
2022/10/06 08:19:53;;;;;;;6.32;1.33;;;;;;;;;;5020187;28;20093;-69
2022/10/06 08:22:18;;;;;;;6.70;1.10;;;;;;;;;;5022356;28;20048;-70
2022/10/06 08:24:43;;;;;;;4.80;1.20;;;;;;;;;;5022105;28;20060;-68
2022/10/06 08:27:09;;;;;;;3.30;0.90;;;;;;;;;;5022520;28;20041;-68
2022/10/06 08:29:34;;;;;;;8.85;1.83;;;;;;;;;;5021931;28;20033;-66
2022/10/06 08:31:59;;;;;;;9.07;1.50;;;;;;;;;;5022310;28;20032;-67
2022/10/06 08:34:25;;;;;;;7.78;2.17;;;;;;;;;;5022332;28;20070;-69
2022/10/06 08:36:50;;;;;;;3.47;0.98;;;;;;;;;;5021817;28;20071;-68
2022/10/06 08:39:15;;;;;;;4.77;1.03;;;;;;;;;;5022124;28;20029;-67
2022/10/06 08:41:50;;;;;;;10.82;1.42;;;;;;;;;;5022141;28;20267;-68
2022/10/06 08:44:21;;;;;;;10.75;1.50;;;;;;;;;;5022650;28;20033;-70
2022/10/06 08:46:49;;;;;;;18.70;1.95;;;;;;;;;;5021445;28;20018;-67
2022/10/06 08:49:17;;;;;;;19.40;1.40;;;;;;;;;;5022336;28;20419;-69
2022/10/06 08:51:51;;;;;;;9.70;1.30;;;;;;;;;;5022104;28;20033;-70
2022/10/06 08:54:32;;;;;;;8.15;2.05;;;;;;;;;;5021502;28;20013;-69
2022/10/06 08:57:04;;;;;;;8.27;1.65;;;;;;;;;;5020675;28;20112;-69
2022/10/06 08:59:31;;;;;;;10.45;1.35;;;;;;;;;;5019106;28;20029;-68
2022/10/06 09:01:56;;;;;;;16.30;2.35;;;;;;;;;;5022096;28;20026;-67
2022/10/06 09:04:27;;;;;;;10.60;1.60;;;;;;;;;;5012502;28;20494;-68
2022/10/06 09:06:58;;;;;;;11.27;1.40;;;;;;;;;;5020467;28;20026;-68
2022/10/06 09:09:39;;;;;;;7.75;1.70;;;;;;;;;;5020562;28;20101;-69
2022/10/06 09:12:05;;;;;;;13.50;2.38;;;;;;;;;;5022218;28;20030;-68
2022/10/06 09:14:30;;;;;;;9.93;1.20;;;;;;;;;;5022419;28;20021;-69
2022/10/06 09:16:59;;;;;;;5.87;1.30;;;;;;;;;;5021590;28;21266;-67
2022/10/06 09:19:30;;;;;;;11.77;1.88;;;;;;;;;;5020143;28;20274;-67
2022/10/06 09:21:58;;;;;;;11.90;1.80;;;;;;;;;;5021178;28;21403;-68
2022/10/06 09:24:29;;;;;;;14.65;1.98;;;;;;;;;;5003652;28;20009;-69
2022/10/06 09:26:57;;;;;;;8.32;1.60;;;;;;;;;;5020840;28;20029;-69
2022/10/06 09:29:22;;;;;;;7.78;1.48;;;;;;;;;;5020962;28;20031;-69
2022/10/06 09:31:50;;;;;;;7.95;1.30;;;;;;;;;;5023221;28;20511;-67
2022/10/06 09:34:21;;;;;;;9.63;1.50;;;;;;;;;;5021115;28;20024;-69
2022/10/06 09:37:03;;;;;;;10.50;1.70;;;;;;;;;;5020779;28;20072;-69
2022/10/06 09:39:35;;;;;;;13.30;2.05;;;;;;;;;;5021588;28;20045;-69
2022/10/06 09:42:02;;;;;;;10.60;1.88;;;;;;;;;;5021618;28;20044;-68
2022/10/06 09:44:37;;;;;;;14.77;1.35;;;;;;;;;;5021611;28;20156;-69
2022/10/06 09:47:20;;;;;;;10.75;1.50;;;;;;;;;;5020683;28;20612;-68
2022/10/06 09:50:01;;;;;;;12.57;2.20;;;;;;;;;;5013407;28;20487;-68
2022/10/06 09:52:26;;;;;;;11.82;1.83;;;;;;;;;;5020647;28;20032;-67
2022/10/06 09:55:01;;;;;;;9.90;1.20;;;;;;;;;;5021580;28;20034;-68
2022/10/06 09:57:26;;;;;;;16.80;2.17;;;;;;;;;;5019962;28;20262;-67
2022/10/06 09:59:51;;;;;;;14.82;1.77;;;;;;;;;;5018898;28;20025;-68
2022/10/06 10:02:35;;;;;;;9.30;1.50;;;;;;;;;;5021228;28;20020;-68
2022/10/06 10:05:01;;;;;;;9.95;2.13;;;;;;;;;;5021023;28;20030;-68
2022/10/06 10:07:28;;;;;;;8.23;1.35;;;;;;;;;;5020318;28;20079;-68
2022/10/06 10:10:08;;;;;;;13.23;1.63;;;;;;;;;;5018997;28;20090;-70
2022/10/06 10:12:34;;;;;;;4.88;1.33;;;;;;;;;;5003346;28;20637;-68
2022/10/06 10:15:02;;;;;;;13.65;2.70;;;;;;;;;;5021114;28;20052;-68
2022/10/06 10:17:36;;;;;;;11.98;1.67;;;;;;;;;;5023406;28;20021;-69
2022/10/06 10:20:04;;;;;;;13.50;1.52;;;;;;;;;;5024567;28;20041;-69
2022/10/06 10:22:38;;;;;;;8.63;1.65;;;;;;;;;;5024167;28;20141;-70
2022/10/06 10:25:03;;;;;;;8.68;1.50;;;;;;;;;;5005326;28;20074;-68
2022/10/06 10:27:36;;;;;;;10.32;1.58;;;;;;;;;;5024158;28;20025;-67
2022/10/06 10:30:08;;;;;;;7.25;1.55;;;;;;;;;;5023906;28;20711;-68
2022/10/06 10:32:37;;;;;;;9.23;2.10;;;;;;;;;;5018629;28;20083;-68
2022/10/06 10:35:12;;;;;;;6.80;1.45;;;;;;;;;;5019060;28;20033;-70
2022/10/06 10:37:58;;;;;;;11.90;1.27;;;;;;;;;;5023723;28;20076;-69
2022/10/06 10:40:23;;;;;;;9.90;1.38;;;;;;;;;;5024508;28;20650;-69
2022/10/06 10:42:52;;;;;;;9.93;1.70;;;;;;;;;;5002763;28;20048;-69
2022/10/06 10:45:17;;;;;;;;;;;;;;;;;;5023855;28;20025;-68
2022/10/06 10:47:44;;;;;;;6.13;1.27;;;;;;;;;;5023339;28;19905;-68
2022/10/06 10:50:09;;;;;;;7.50;1.25;;;;;;;;;;5021697;28;20269;-68
2022/10/06 10:52:40;;;;;;;8.35;1.60;;;;;;;;;;5012653;28;20026;-70
2022/10/06 10:55:25;;;;;;;9.10;1.23;;;;;;;;;;5026197;28;20266;-68
2022/10/06 10:57:52;;;;;;;10.73;1.25;;;;;;;;;;5021897;28;20029;-70
2022/10/06 11:00:20;;;;;;;8.25;1.50;;;;;;;;;;5023447;28;20726;-67
2022/10/06 11:02:46;;;;;;;11.95;1.95;;;;;;;;;;5021231;28;20064;-68
2022/10/06 11:05:13;;;;;;;6.60;1.42;;;;;;;;;;5024092;28;20072;-71
2022/10/06 11:07:45;;;;;;;14.33;2.10;;;;;;;;;;5023310;28;20025;-66
2022/10/06 11:10:19;;;;;;;9.73;1.75;;;;;;;;;;5022778;28;20041;-68
2022/10/06 11:13:17;;;;;;;10.95;1.60;;;;;;;;;;5025302;28;20017;-67
2022/10/06 11:15:52;;;;;;;9.23;1.52;;;;;;;;;;5001093;28;20029;-69
2022/10/06 11:18:35;;;;;;;10.77;1.60;;;;;;;;;;5023157;28;20021;-68
2022/10/06 11:21:08;;;;;;;17.38;1.95;;;;;;;;;;5022469;28;20832;-68
2022/10/06 11:24:03;;;;;;;12.23;2.00;;;;;;;;;;5022911;28;20037;-67
2022/10/06 11:26:38;;;;;;;12.38;1.65;;;;;;;;;;5005816;28;20145;-67
2022/10/06 11:29:22;;;;;;;12.57;2.28;;;;;;;;;;5021932;28;20770;-68
2022/10/06 11:32:10;;;;;;;5.32;1.42;;;;;;;;;;5024050;28;20075;-68
2022/10/06 11:34:35;;;;;;;11.85;1.70;;;;;;;;;;5019882;28;20837;-70
2022/10/06 11:37:03;;;;;;;10.48;1.88;;;;;;;;;;5022608;28;20029;-70
2022/10/06 11:39:35;;;;;;;7.10;1.48;;;;;;;;;;5021388;28;20040;-67
2022/10/06 11:42:09;;;;;;;9.40;1.42;;;;;;;;;;5023412;28;20097;-70
2022/10/06 11:44:39;;;;;;;7.05;1.20;;;;;;;;;;5024788;28;20029;-68
2022/10/06 11:47:09;;;;;;;6.05;1.20;;;;;;;;;;5023106;28;20022;-67
2022/10/06 11:49:46;;;;;;;7.60;0.95;;;;;;;;;;5004213;28;20041;-67
2022/10/06 11:52:11;;;;;;;6.25;1.15;;;;;;;;;;5021058;28;20025;-68
2022/10/06 11:55:15;;;;;;;9.20;1.67;;;;;;;;;;5023490;28;20032;-69
2022/10/06 11:57:58;;;;;;;6.00;1.20;;;;;;;;;;4955221;28;20783;-70
2022/10/06 12:00:24;;;;;;;11.45;2.03;;;;;;;;;;4959916;28;20022;-70
2022/10/06 12:02:49;;;;;;;8.27;1.20;;;;;;;;;;4961096;28;20178;-68
2022/10/06 12:05:14;;;;;;;7.88;1.42;;;;;;;;;;4961498;28;20025;-68
2022/10/06 12:07:49;;;;;;;7.27;1.70;;;;;;;;;;4961674;28;20023;-68
2022/10/06 12:10:26;;;;;;;7.57;1.67;;;;;;;;;;4960843;28;20730;-67
2022/10/06 12:13:10;;;;;;;6.38;1.08;;;;;;;;;;4959053;28;20034;-69
2022/10/06 12:15:57;;;;;;;9.77;1.67;;;;;;;;;;4967195;28;20192;-71
2022/10/06 12:18:25;;;;;;;7.35;1.27;;;;;;;;;;4961055;28;20038;-70
2022/10/06 12:20:51;;;;;;;11.77;1.52;;;;;;;;;;4961120;28;20429;-67
2022/10/06 12:23:16;;;;;;;7.45;1.55;;;;;;;;;;4961055;28;20045;-69
2022/10/06 12:25:54;;;;;;;8.18;0.93;;;;;;;;;;4963362;28;20070;-69
2022/10/06 12:28:28;;;;;;;5.82;1.35;;;;;;;;;;4985999;28;20047;-69
2022/10/06 12:30:54;;;;;;;9.57;1.08;;;;;;;;;;5021921;28;20087;-68
2022/10/06 12:33:32;;;;;;;10.88;1.30;;;;;;;;;;5021916;28;20021;-69
2022/10/06 12:36:01;;;;;;;13.05;1.50;;;;;;;;;;5007255;28;20108;-68
2022/10/06 12:38:27;;;;;;;15.60;1.90;;;;;;;;;;5021769;28;20056;-73
2022/10/06 12:40:54;;;;;;;13.63;1.38;;;;;;;;;;5021068;28;20033;-65
2022/10/06 12:43:22;;;;;;;12.80;1.42;;;;;;;;;;5022574;28;20161;-66
2022/10/06 12:45:47;;;;;;;15.73;1.60;;;;;;;;;;5014040;28;20029;-66
2022/10/06 12:48:15;;;;;;;7.13;1.47;;;;;;;;;;5023132;28;20922;-65
2022/10/06 12:50:42;;;;;;;9.18;1.40;;;;;;;;;;5022065;28;20258;-65
2022/10/06 12:53:13;;;;;;;8.88;1.33;;;;;;;;;;5013903;28;20045;-67
2022/10/06 12:55:42;;;;;;;6.97;1.05;;;;;;;;;;5032508;28;20044;-65
2022/10/06 12:58:25;;;;;;;8.20;1.25;;;;;;;;;;5033436;28;20032;-66
2022/10/06 13:00:50;;;;;;;12.20;1.20;;;;;;;;;;5014512;28;20085;-66
2022/10/06 13:03:17;;;;;;;8.52;1.63;;;;;;;;;;5020305;28;20463;-67
2022/10/06 13:05:48;;;;;;;10.15;1.60;;;;;;;;;;5031140;28;20415;-66
2022/10/06 13:08:21;;;;;;;6.78;1.40;;;;;;;;;;5032042;28;20025;-66
2022/10/06 13:10:48;;;;;;;5.57;1.20;;;;;;;;;;5032037;28;20114;-65
2022/10/06 13:13:22;;;;;;;5.70;1.30;;;;;;;;;;5014017;28;20061;-67
2022/10/06 13:15:48;;;;;;;7.03;1.10;;;;;;;;;;5032305;28;20017;-65
2022/10/06 13:18:21;;;;;;;13.82;1.88;;;;;;;;;;5032343;28;20105;-65
2022/10/06 13:20:51;;;;;;;13.10;1.55;;;;;;;;;;5031830;28;20037;-65
2022/10/06 13:23:22;;;;;;;10.73;1.60;;;;;;;;;;5031473;28;20029;-65
2022/10/06 13:25:49;;;;;;;7.28;1.42;;;;;;;;;;5018356;28;20025;-65
2022/10/06 13:28:22;;;;;;;13.88;1.30;;;;;;;;;;5031264;28;20033;-67
2022/10/06 13:30:51;;;;;;;7.03;1.40;;;;;;;;;;5031648;28;20041;-66
2022/10/06 13:33:17;;;;;;;9.23;1.55;;;;;;;;;;5031285;28;20029;-67
2022/10/06 13:35:42;;;;;;;9.55;1.42;;;;;;;;;;5031985;28;20021;-67
2022/10/06 13:38:07;;;;;;;7.40;1.02;;;;;;;;;;5030751;28;20026;-66
2022/10/06 13:40:33;;;;;;;12.13;1.38;;;;;;;;;;5031743;28;20151;-65
2022/10/06 13:42:59;;;;;;;8.68;1.63;;;;;;;;;;5032113;28;20037;-66
2022/10/06 13:45:26;;;;;;;6.05;1.20;;;;;;;;;;5031311;28;20067;-66
2022/10/06 13:48:06;;;;;;;10.88;1.52;;;;;;;;;;5031465;28;20104;-68
2022/10/06 13:50:31;;;;;;;5.70;0.95;;;;;;;;;;5026576;28;20113;-68
2022/10/06 13:52:56;;;;;;;9.55;1.17;;;;;;;;;;5034520;28;20049;-67
2022/10/06 13:55:22;;;;;;;8.68;1.65;;;;;;;;;;5038340;28;20453;-66
2022/10/06 13:57:48;;;;;;;8.00;1.17;;;;;;;;;;5037771;28;20028;-67
2022/10/06 14:00:14;;;;;;;10.90;1.58;;;;;;;;;;5019584;28;20021;-67
2022/10/06 14:02:40;;;;;;;10.52;1.50;;;;;;;;;;5038747;28;20155;-66
2022/10/06 14:05:17;;;;;;;6.47;1.33;;;;;;;;;;5038919;28;20108;-68
2022/10/06 14:07:43;;;;;;;8.48;1.20;;;;;;;;;;5038695;28;20064;-68
2022/10/06 14:10:13;;;;;;;16.90;1.83;;;;;;;;;;5038035;28;20018;-68
2022/10/06 14:12:41;;;;;;;8.05;1.13;;;;;;;;;;5019805;28;20018;-67
2022/10/06 14:15:15;;;;;;;11.47;1.27;;;;;;;;;;5036698;28;20450;-68
2022/10/06 14:17:40;;;;;;;8.27;1.98;;;;;;;;;;5038076;28;20318;-67
2022/10/06 14:20:24;;;;;;;5.88;1.15;;;;;;;;;;5037125;28;20029;-68
2022/10/06 14:22:49;;;;;;;13.85;1.45;;;;;;;;;;5024826;28;20025;-66
2022/10/06 14:25:14;;;;;;;11.90;1.63;;;;;;;;;;5005970;28;20052;-67
2022/10/06 14:27:40;;;;;;;13.32;1.58;;;;;;;;;;5037353;28;20685;-66
2022/10/06 14:30:05;;;;;;;8.50;1.52;;;;;;;;;;5020635;28;20028;-64
2022/10/06 14:32:31;;;;;;;15.48;1.83;;;;;;;;;;5039472;28;20582;-68
2022/10/06 14:34:56;;;;;;;8.75;1.30;;;;;;;;;;5036903;28;20047;-66
2022/10/06 14:37:21;;;;;;;9.20;1.73;;;;;;;;;;5037975;28;20025;-67
2022/10/06 14:39:49;;;;;;;9.13;1.67;;;;;;;;;;5037320;28;20270;-67
2022/10/06 14:42:14;;;;;;;22.60;2.10;;;;;;;;;;5037027;28;20129;-67
2022/10/06 14:44:39;;;;;;;6.90;1.70;;;;;;;;;;5036656;28;20029;-68
2022/10/06 14:47:08;;;;;;;10.98;1.63;;;;;;;;;;5037353;28;20017;-66
2022/10/06 14:49:33;;;;;;;5.32;1.23;;;;;;;;;;5038674;28;20091;-67
2022/10/06 14:51:59;;;;;;;4.60;1.00;;;;;;;;;;5038746;28;20018;-67
2022/10/06 14:54:24;;;;;;;5.88;1.23;;;;;;;;;;5037767;28;20014;-65